Timeline UpdatesTrip UpdatesNews PostsPvt PostsTravel TipsAdmin PostsConv PostsFollowed PostsChat RequestsBlog PostsPNR Posts

Disclaimer
Search
 
 
Wed Jul 30, 2014 20:42:50 ISTHomeTrainsΣChainsAtlasPNRForumGalleryNewsFAQTripsMembersLoginFeedback
No Recent News for this Train
Other Trains in the News **new
Latest...
Train No.16093 / 16094 Chennai Central – Lucknow – Chennai Central Bi-weekly Express trains will be temporarily augmented by 1 AC 3-tier coach and 1 Sleeper Class coach from 28.01.2014 to 08.03.2014 ex. Chennai Central and from 30.01.2014 to 10.03.2014 ex. Lucknow. Running with B2 Announced and Displayed as GomtiSagar Express at LKO and CNB.
Wed Nov 27, 2013 (07:29PM)
⇐ Return Journey: Train# 16093

16094/Lucknow Jn-Chennai (GomtiSagar) Express

Nov 30 2013 (9:27AM)
Change Departure Station:
Change Arrival Station:
Post a Train Travel TipPost a Train Travel Tip **new
Post a Comment/Question/Picture/VideoPost a Comment/Question/Picture/Video
Inaugural Run
Tue Jan 01, 1991
Pantry/Catering
✕ NO Pantry Car
✕ NO Catering
RSA - Rake Sharing
16031/16032/16093/16094/12755/12756 (renumbered 22613/22614) has RSA.
Rake/Coach Composition
ENG-SLR-VPH-GEN-GEN-GEN-GEN-B1-S2-S2-S3-S4-S5-S6-S7-GEN-GEN-SLR-VPH-VPH-GD; Per Blog Entry #797999; S6 & S7 Kept as is from the previous update.
Loco
LJN-MAS-->RPM/ED WAP-4
News    PNR    Forum    Time-Table    Availability    Fare Chart    Map    Arr/Dep History    Trips    Gallery    ΣChains    X/O    Timeline    
Travel Time: 35h 2m    33 halts    Distance: 1709 km    Avg Speed: 48 km/hr
Type: Mail/Express
Zone: SR/Southern
Departs @ 16:20 (Avg 15m late)
Platform# 6
 M  T  
Lucknow Junction/LJN 
Arrives @ 03:22 +2 nights (Avg 11m late)
Platform# ???
   W  S
Nidubrolu/NDO 

33 halts. 235 intermediate Stations between Lucknow Junction and Nidubrolu

Show ALL intermediate Stations  Show Old Time-Table

#CodeStation NameX/OArrivesAvgDepartsAvgHaltPFDay#KmSpeedElevZoneAddress
1LJN»Lucknow Junction (6)»  -16:20+15610.045126mNERLucknow, Uttar Pradesh
2CNBKanpur Central (10)X  17:55+3218:05+4110m5171.273128mNCRKANPUR-208 001, Uttar Pradesh
3ORAIOrai (3)  19:32+1:0919:34+1:142m--1177.647139mNCROrai(05162-252206), Uttar Pradesh
4JHSJhansi Junction (7)  22:00+4722:15+5015m21291.587259mNCRJhansi, Uttar Pradesh
5LARLalitpur (3)O  23:17+1:0623:19+1:062m21381.836373mNCRLalitpur, Uttar Pradesh
6BINABina Junction (4)X  01:05+2901:10+325m22444.779414mWCRJn Pt - KATNI/GUNA/ BPL/JHS, Madhya Pradesh
7BPLBhopal Junction (6)X  02:55+4703:00+495m12583.338497mWCRBhopal, Madhya Pradesh
8ETItarsi Junction (7)X  05:25+1805:30+295m22675.073329mWCRItarsi 461111, Madhya Pradesh
9GDYAGhoradongri (3)  06:28+3406:30+412m--2745.447410mCRBetul, Madhya Pradesh
10BZUBetul (3)  07:16+4307:18+442m--2781.353644mCRBetul, Madhya Pradesh
11AMLAAmla Junction (5)  07:44+4307:46+432m--2804.281733mCRAmla Distt. Betul, Madhya Pradesh
12MTYMultai (2)  08:03+4508:05+472m--2827.157762mCRMultai, Madhya Pradesh
13PARPandhurna (2)O  08:48+4808:50+502m--2867.860481mCRDistt: Chhindwara, Madhya Pradesh
14NGPNagpur Junction (8)  10:35+4210:45+4610m22972.274314mCRNagpur 440001, Maharashtra
15SEGMSewagram Junction (5)  11:47+5311:49+542m--21048.474279mCRWardha, Maharashtra
16HGTHinganghat (3)  12:16+5312:18+532m--21081.578228mCRHinganghat, Maharashtra
17WRRWarora (2)  12:48+5512:50+552m--21120.653214mCRWarora, Maharashtra
18MJRIMajri Junction (3)  13:04+5713:06+572m221133.070198mCRDist. Chandrapur, Maharashtra
19CDChandrapur Maharashtra (3)X  13:35+1:0113:38+593m--21167.016194mCRChandrapur 442401, Maharashtra
20BPQBalharshah Junction (5)  14:30+2614:40+3210m121180.771188mCRBallarpur. Ph : 07172 - 240341, Maharashtra
21SKZRSirpur Kaghaznagar (3)X  15:39+4315:41+422m221250.582181mSCRAdilabad Dist., Telangana
22BPABellampalli (3)X  16:09+5216:10+521m221289.079205mSCRTel:.08735 223298, Telangana
23MCIManchiryal (3)X  16:25+5716:26+571m221308.882159mSCRAdilabad Dist., Telangana
24RDMRamagundam (3)  16:36+1:0816:37+1:081m221322.681170mSCRKarimnagar Dist. Ph : 08728 - 255237, Telangana
25PDPLPeddapalli Junction (2)  16:50+1:1716:51+1:171m221340.185228mSCRKarimnagar Dist., Telangana
26JMKTJamikunta (2)X  17:19+1:2717:20+1:301m221379.634236mSCRKarimnagar Dist., Telangana
27WLWarangal (3)X  18:38+1:2218:43+1:205m121423.780271mSCRWarangal., Telangana
28KDMKesamudram (2)  19:17+1:2819:18+1:291m121468.981223mSCRWarangal Dist., Telangana
29MABDMahbubabad (2)  19:29+1:3419:30+1:351m121483.849200mSCRWarangal Dist., Telangana
30DKJDornakal Junction (3)  20:00+1:3120:01+1:341m221508.281153mSCRWarangal District, Telangana
31KMTKhammam (2)X  20:18+1:2720:20+1:292m121531.323118mSCRKhammam 507001, Telangana
32BZAVijayawada Junction (10)X  00:40+1501:00+1120m531631.73624mSCRVijayawada 520001, Andhra Pradesh
33NGNTNew Guntur (1)  01:50+101:52+12m131661.82130mSCRGuntur City, Andhra Pradesh
34TELTenali Junction (5)  03:04+203:05+41m--31686.77816mSCRTel: 08644-227834, Andhra Pradesh
35NDO•Nidubrolu (3)•X  03:22+1103:24+112m--31708.8699mSCRNidubrolu, Andhra Pradesh
36BPPBapatla (3)  03:42+1603:44+152m--31729.38210mSCRBapatla, Andhra Pradesh
37CLXChirala (4)X  03:55+1703:57+172m--31744.4698mSCRChirala, Andhra Pradesh
38OGLOngole (3)X  04:40+1304:42+142m331793.77712mSCROngole, Andhra Pradesh
39SKMSingarayakonda (3)  05:04+2005:06+192m331822.010326mSCRSingarayakonda, Andhra Pradesh
40KVZKavali (4)  05:28+305:30+32m231859.78221mSCRKavali, Andhra Pradesh
41BTTRBitragunta (2)X  05:42+305:44+32m231876.26415mSCRBitragunta, Andhra Pradesh
42NLRNellore (4)  06:16+006:17+01m331910.53021mSCRNellore, Andhra Pradesh
43GDRGudur Junction (3)  07:35-207:40+05m131949.07219mSCRGudur, Andhra Pradesh
44NYPNayadupeta (3)X  08:03+708:05+72m231976.79133mSRNayudupeta, Andhra Pradesh
45SPESullurupeta (3)  08:23+1008:25+102m232003.9479mSR524121., Andhra Pradesh
46MASChennai Central (12)  10:10+3-232086.3-9mSRChennai 600003, Tamil Nadu
Scroll to Top
Scroll to Bottom